KMLS/MLS METAR and TAF weather

Enter ICAO airport designator
Station Type Date Time Source
KMLS METAR 2024/04/15 07:53 UTC NOAA

KMLS 150753Z AUTO 02006KT 10SM CLR 11/06 A2966 RMK AO2 SLP030 T01060061


Station Type Date Time Source
KMLS Decoded METAR 2024/04/15 07:53 UTC NOAA

MILES CITY WILEY FIELD, MT, United States (KMLS) 46-26N 105-53W 801M
Apr 15, 2024 - 03:53 AM EDT / 2024.04.15 0753 UTC
Wind: from the NNE (020 degrees) at 7 MPH (6 KT):0
Visibility: 10 mile(s):0
Sky conditions: clear
Temperature: 51.1 F (10.6 C)
Dew Point: 43.0 F (6.1 C)
Relative Humidity: 73%
Pressure (altimeter): 29.66 in. Hg (1004 hPa)
ob: KMLS 150753Z AUTO 02006KT 10SM CLR 11/06 A2966 RMK AO2 SLP030 T01060061
cycle: 8

Station Type Date Time Source
KMLS TAF 2024/04/15 06:27 UTC NOAA